Time;durP1;ratioP1;P1;durP2;ratioP2;P2;SDS_P1;SDS_P2;PMS_P1;PMS_P2;Temp;Humidity;BMP_temperature;BMP_pressure;BME280_temperature;BME280_humidity;BME280_pressure;Samples;Min_cycle;Max_cycle;Signal;HPM_P1;HPM_P2
2023/10/12 00:01:59;;;;;;;22.63;13.15;;;359.00;2329.60;;;;;;5025143;28;20044;-56
2023/10/12 00:04:28;;;;;;;19.52;12.65;;;359.00;2329.60;;;;;;5035664;28;20402;-56
2023/10/12 00:06:55;;;;;;;16.77;11.20;;;359.00;2329.60;;;;;;5034494;28;20175;-57
2023/10/12 00:09:25;;;;;;;16.10;11.57;;;359.00;2329.60;;;;;;5034909;28;20026;-57
2023/10/12 00:11:58;;;;;;;17.02;10.77;;;359.00;2329.60;;;;;;5032034;28;20021;-56
2023/10/12 00:14:29;;;;;;;15.90;11.65;;;359.10;2329.60;;;;;;5022702;28;20049;-57
2023/10/12 00:16:55;;;;;;;14.35;9.88;;;359.00;2329.60;;;;;;5031208;28;20029;-57
2023/10/12 00:19:23;;;;;;;15.60;10.07;;;359.00;2329.60;;;;;;5046573;28;20036;-57
2023/10/12 00:21:50;;;;;;;15.15;10.82;;;359.00;2329.60;;;;;;5047244;28;20370;-56
2023/10/12 00:24:18;;;;;;;15.13;11.45;;;359.00;2329.60;;;;;;5020651;28;20021;-57
2023/10/12 00:26:44;;;;;;;18.33;10.95;;;358.90;2329.60;;;;;;5046417;28;20036;-57
2023/10/12 00:29:10;;;;;;;20.98;11.93;;;358.90;2329.60;;;;;;5046868;28;20108;-56
2023/10/12 00:31:39;;;;;;;14.43;10.40;;;359.00;2329.60;;;;;;5046893;28;20112;-57
2023/10/12 00:34:05;;;;;;;13.02;9.52;;;358.90;2329.60;;;;;;5046530;28;20035;-57
2023/10/12 00:36:36;;;;;;;13.48;10.90;;;359.00;2329.60;;;;;;5046522;28;20116;-56
2023/10/12 00:39:09;;;;;;;15.07;10.25;;;358.90;2329.60;;;;;;5074559;28;20036;-57
2023/10/12 00:41:36;;;;;;;15.40;10.75;;;358.90;2329.60;;;;;;5088614;28;20037;-58
2023/10/12 00:44:10;;;;;;;16.15;11.88;;;358.80;2329.60;;;;;;5079999;28;20090;-57
2023/10/12 00:51:52;;;;;;;14.05;10.73;;;358.80;2329.60;;;;;;5088381;28;20022;-56
2023/10/12 00:54:27;;;;;;;18.20;11.35;;;358.80;2329.60;;;;;;5089118;28;20051;-56
2023/10/12 00:57:19;;;;;;;13.85;11.10;;;358.70;2329.60;;;;;;5089263;28;20039;-58
2023/10/12 00:59:46;;;;;;;16.52;11.57;;;358.70;2329.60;;;;;;5087902;28;20038;-57
2023/10/12 01:02:15;;;;;;;15.57;12.27;;;358.70;2329.60;;;;;;5089108;28;20032;-58
2023/10/12 01:04:41;;;;;;;18.83;12.88;;;358.60;2329.60;;;;;;5088709;28;20020;-57
2023/10/12 01:07:10;;;;;;;16.80;12.30;;;358.50;2329.60;;;;;;5076067;28;20025;-57
2023/10/12 01:09:39;;;;;;;18.98;13.45;;;358.50;2329.60;;;;;;5088268;28;20016;-57
2023/10/12 01:12:16;;;;;;;19.42;12.52;;;358.50;2329.60;;;;;;5088410;28;20538;-58
2023/10/12 01:14:43;;;;;;;18.50;12.30;;;358.40;2329.60;;;;;;5064855;28;20035;-56
2023/10/12 01:17:29;;;;;;;16.50;10.75;;;333.70;2329.60;;;;;;5088664;28;20024;-58
2023/10/12 01:19:55;;;;;;;17.67;11.13;;;333.60;2329.60;;;;;;5071154;28;20567;-58
2023/10/12 01:22:31;;;;;;;14.65;11.77;;;333.60;2329.60;;;;;;5072697;28;20371;-57
2023/10/12 01:25:00;;;;;;;13.05;9.48;;;333.50;2329.60;;;;;;5088372;28;20114;-57
2023/10/12 01:27:26;;;;;;;15.25;9.98;;;333.70;2329.60;;;;;;5086556;28;20123;-58
2023/10/12 01:29:53;;;;;;;13.20;10.43;;;333.70;2329.60;;;;;;5088806;28;20086;-57
2023/10/12 01:32:27;;;;;;;17.83;12.38;;;333.70;2329.60;;;;;;5088888;28;20028;-57
2023/10/12 01:34:55;;;;;;;17.15;13.15;;;358.40;2329.60;;;;;;5088164;28;20119;-58
2023/10/12 01:37:22;;;;;;;39.88;26.80;;;333.70;2329.60;;;;;;5089111;28;20028;-57
2023/10/12 01:40:12;;;;;;;22.70;13.52;;;333.70;2329.60;;;;;;5087814;28;20028;-57
2023/10/12 01:45:17;;;;;;;15.27;11.48;;;333.60;2329.60;;;;;;5087122;28;20385;-57
2023/10/12 01:47:44;;;;;;;13.65;11.52;;;333.60;2329.60;;;;;;5088005;28;20016;-58
2023/10/12 01:50:11;;;;;;;18.42;11.77;;;333.50;2329.60;;;;;;5073229;28;20024;-58
2023/10/12 01:52:37;;;;;;;19.30;14.23;;;333.50;2329.60;;;;;;5062160;28;20107;-57
2023/10/12 01:55:15;;;;;;;18.17;14.13;;;333.60;2329.60;;;;;;5081748;28;20242;-57
2023/10/12 01:57:47;;;;;;;24.38;14.35;;;333.60;2329.60;;;;;;5082705;28;20446;-57
2023/10/12 02:00:15;;;;;;;16.27;12.70;;;333.70;2329.60;;;;;;5087913;28;20024;-58
2023/10/12 02:02:50;;;;;;;17.33;13.45;;;333.60;2329.60;;;;;;5089074;28;20028;-57
2023/10/12 02:05:26;;;;;;;15.38;12.52;;;358.40;2329.60;;;;;;5083094;28;20024;-57
2023/10/12 02:07:53;;;;;;;19.98;15.40;;;333.60;2329.60;;;;;;5092183;28;20024;-57
2023/10/12 02:10:18;;;;;;;28.42;22.55;;;333.60;2329.60;;;;;;5092301;28;20028;-57
2023/10/12 02:12:46;;;;;;;30.50;24.95;;;333.60;2329.60;;;;;;5091532;28;20092;-57
2023/10/12 02:15:15;;;;;;;22.05;18.27;;;333.50;2329.60;;;;;;5091838;28;20039;-56
2023/10/12 02:17:49;;;;;;;20.73;16.50;;;333.50;2329.60;;;;;;5092086;28;20302;-57
2023/10/12 02:20:15;;;;;;;19.15;14.07;;;333.40;2329.60;;;;;;5091681;28;20035;-57
2023/10/12 02:22:41;;;;;;;18.35;12.68;;;333.50;2329.60;;;;;;5077015;28;20017;-56
2023/10/12 02:27:49;;;;;;;18.77;13.35;;;333.50;2329.60;;;;;;5091924;28;20031;-57
2023/10/12 02:30:18;;;;;;;16.77;11.90;;;333.50;2329.60;;;;;;5091598;28;20052;-57
2023/10/12 02:32:48;;;;;;;15.70;10.15;;;333.50;2329.60;;;;;;5092057;28;20125;-57
2023/10/12 02:35:19;;;;;;;16.38;11.55;;;333.50;2329.60;;;;;;5091528;28;20032;-57
2023/10/12 02:37:46;;;;;;;16.67;10.65;;;333.50;2329.60;;;;;;5091786;28;20034;-57
2023/10/12 02:40:12;;;;;;;13.27;9.60;;;333.50;2329.60;;;;;;5091460;28;20028;-56
2023/10/12 02:42:42;;;;;;;15.13;10.57;;;333.50;2329.60;;;;;;5091407;28;20085;-57
2023/10/12 02:45:15;;;;;;;13.85;11.40;;;333.40;2329.60;;;;;;5091202;28;20028;-57
2023/10/12 02:47:42;;;;;;;15.70;10.30;;;333.40;2329.60;;;;;;5091709;28;20085;-57
2023/10/12 02:52:43;;;;;;;13.45;8.90;;;333.40;2329.60;;;;;;5091427;28;20078;-57
2023/10/12 02:57:53;;;;;;;14.25;9.43;;;333.40;2329.60;;;;;;5069196;28;20377;-58
2023/10/12 03:00:23;;;;;;;10.60;8.02;;;333.40;2329.60;;;;;;5091399;28;20499;-57
2023/10/12 03:02:52;;;;;;;13.43;7.88;;;333.40;2329.60;;;;;;5090914;28;20032;-57
2023/10/12 03:05:30;;;;;;;13.10;8.77;;;333.40;2329.60;;;;;;5091034;28;20028;-57
2023/10/12 03:07:56;;;;;;;14.75;8.73;;;333.40;2329.60;;;;;;5087731;28;20028;-57
2023/10/12 03:10:26;;;;;;;13.27;9.77;;;333.40;2329.60;;;;;;5091047;28;20043;-57
2023/10/12 03:12:55;;;;;;;13.40;8.90;;;333.30;2329.60;;;;;;5076277;28;20056;-57
2023/10/12 03:15:40;;;;;;;13.57;9.07;;;333.30;2329.60;;;;;;5091230;28;20036;-56
2023/10/12 03:18:08;;;;;;;13.75;9.52;;;333.30;2329.60;;;;;;5090851;28;20038;-57
2023/10/12 03:20:35;;;;;;;12.68;8.55;;;333.30;2329.60;;;;;;5090275;28;20048;-57
2023/10/12 03:23:12;;;;;;;12.32;8.93;;;333.30;2329.60;;;;;;5090884;28;20020;-58
2023/10/12 03:25:51;;;;;;;12.80;9.23;;;333.20;2329.60;;;;;;5089498;28;20144;-57
2023/10/12 03:28:30;;;;;;;11.95;9.18;;;333.30;2329.60;;;;;;5076603;28;20047;-57
2023/10/12 03:33:55;;;;;;;14.63;8.05;;;333.20;2329.60;;;;;;5090737;28;20027;-58
2023/10/12 03:36:26;;;;;;;17.20;9.45;;;333.30;2329.60;;;;;;5090924;28;20063;-57
2023/10/12 03:39:27;;;;;;;12.88;8.93;;;333.30;2329.60;;;;;;5057778;28;20032;-57
2023/10/12 03:41:54;;;;;;;13.50;8.68;;;333.40;2329.60;;;;;;5085834;28;20070;-56
2023/10/12 03:50:07;;;;;;;14.40;9.52;;;333.30;2329.60;;;;;;5090317;28;20476;-56
2023/10/12 03:52:39;;;;;;;13.80;9.13;;;333.30;2329.60;;;;;;5089729;28;20028;-57
2023/10/12 04:02:42;;;;;;;12.95;9.75;;;333.30;2329.60;;;;;;5085133;28;20104;-56
2023/10/12 04:08:12;;;;;;;14.02;9.82;;;333.30;2329.60;;;;;;5089896;28;20073;-57
2023/10/12 04:21:17;;;;;;;15.80;9.73;;;333.20;2329.60;;;;;;5089412;28;20570;-57
2023/10/12 04:23:59;;;;;;;15.77;11.50;;;333.20;2329.60;;;;;;5089353;28;20050;-55
2023/10/12 04:26:38;;;;;;;16.05;9.18;;;333.20;2329.60;;;;;;5089606;28;20495;-57
2023/10/12 04:29:23;;;;;;;13.93;9.63;;;333.20;2329.60;;;;;;5088870;28;20024;-57
2023/10/12 04:31:49;;;;;;;13.75;8.68;;;333.20;2329.60;;;;;;5070959;28;20037;-57
2023/10/12 04:34:18;;;;;;;10.63;8.32;;;333.20;2329.60;;;;;;5078944;28;20457;-55
2023/10/12 04:36:52;;;;;;;11.63;7.85;;;333.20;2329.60;;;;;;5089260;28;20032;-58
2023/10/12 04:39:27;;;;;;;12.57;7.65;;;333.20;2329.60;;;;;;5078640;28;20366;-57
2023/10/12 04:47:07;;;;;;;11.80;7.93;;;333.20;2329.60;;;;;;5089173;28;20158;-57
2023/10/12 04:52:16;;;;;;;15.93;7.32;;;333.20;2329.60;;;;;;5089088;28;20128;-58
2023/10/12 04:57:38;;;;;;;11.60;7.45;;;333.20;2329.60;;;;;;5088732;28;20039;-56
2023/10/12 05:05:15;;;;;;;12.88;9.35;;;333.30;2329.60;;;;;;5078370;28;20024;-57
2023/10/12 05:07:57;;;;;;;12.98;8.20;;;333.20;2329.60;;;;;;5087909;28;20369;-56
2023/10/12 05:10:27;;;;;;;12.48;8.65;;;333.30;2329.60;;;;;;5089100;28;20088;-57
2023/10/12 05:13:05;;;;;;;14.07;8.70;;;333.20;2329.60;;;;;;5088433;28;20073;-57
2023/10/12 05:18:20;;;;;;;14.98;9.10;;;333.40;2329.60;;;;;;5081879;28;20067;-57
2023/10/12 05:20:46;;;;;;;17.13;7.50;;;333.40;2329.60;;;;;;5086355;28;20051;-57
2023/10/12 05:23:12;;;;;;;16.98;7.28;;;333.40;2329.60;;;;;;5088810;28;20020;-57
2023/10/12 05:25:52;;;;;;;14.70;7.70;;;333.40;2329.60;;;;;;5088352;28;20390;-58
2023/10/12 05:28:31;;;;;;;9.77;6.20;;;333.50;2329.60;;;;;;5078769;28;20537;-57
2023/10/12 05:31:09;;;;;;;9.20;6.53;;;333.50;2329.60;;;;;;5088331;28;20040;-57
2023/10/12 05:36:08;;;;;;;15.23;7.18;;;333.70;2329.60;;;;;;5071643;28;20032;-57
2023/10/12 05:38:38;;;;;;;16.90;10.13;;;333.70;2329.60;;;;;;5064027;28;20016;-57
2023/10/12 05:41:11;;;;;;;11.30;9.07;;;358.40;2329.60;;;;;;5088566;28;20114;-57
2023/10/12 05:43:39;;;;;;;11.05;7.78;;;358.50;2329.60;;;;;;5088234;28;20043;-58
2023/10/12 05:46:15;;;;;;;9.23;7.20;;;358.50;2329.60;;;;;;5088000;28;20033;-58
2023/10/12 05:48:46;;;;;;;13.60;7.35;;;358.50;2329.60;;;;;;5078256;28;20107;-57
2023/10/12 05:51:19;;;;;;;20.50;14.07;;;358.50;2329.60;;;;;;5086134;28;20031;-56
2023/10/12 05:53:45;;;;;;;23.77;12.45;;;358.50;2329.60;;;;;;5088230;28;20032;-57
2023/10/12 05:56:12;;;;;;;16.27;12.35;;;358.50;2329.60;;;;;;5087941;28;20079;-57
2023/10/12 05:58:41;;;;;;;22.25;14.85;;;358.60;2329.60;;;;;;5088321;28;20039;-57
2023/10/12 06:01:09;;;;;;;28.67;20.85;;;358.60;2329.60;;;;;;5079836;28;20078;-56
2023/10/12 06:03:36;;;;;;;56.92;41.15;;;358.70;2329.60;;;;;;5062339;28;20056;-57
2023/10/12 06:06:02;;;;;;;25.98;23.10;;;358.90;2329.60;;;;;;5062413;28;20464;-57
2023/10/12 06:08:30;;;;;;;24.95;18.70;;;384.20;2329.60;;;;;;5070416;28;20119;-57
2023/10/12 06:10:55;;;;;;;21.10;16.52;;;384.50;2329.60;;;;;;5063394;28;20048;-57
2023/10/12 06:13:30;;;;;;;17.75;13.02;;;410.00;2355.20;;;;;;5061999;28;20028;-56
2023/10/12 06:15:56;;;;;;;17.40;14.02;;;410.50;2355.20;;;;;;5069496;28;20033;-57
2023/10/12 06:18:22;;;;;;;16.70;12.82;;;435.40;2355.20;;;;;;5067643;28;20020;-58
2023/10/12 06:20:58;;;;;;;18.17;15.43;;;461.10;2380.80;;;;;;5081497;28;20047;-57
2023/10/12 06:23:27;;;;;;;23.52;15.65;;;487.30;2380.80;;;;;;5081723;28;20017;-57
2023/10/12 06:25:53;;;;;;;17.92;15.13;;;512.90;2380.80;;;;;;5077397;28;20063;-58
2023/10/12 06:28:18;;;;;;;21.92;14.25;;;563.50;2432.00;;;;;;5080822;28;20068;-58
2023/10/12 06:30:47;;;;;;;17.13;12.27;;;589.30;2304.00;;;;;;5070959;28;20108;-57
2023/10/12 06:33:17;;;;;;;19.90;12.27;;;615.10;2124.80;;;;;;5073983;28;20052;-58
2023/10/12 06:36:00;;;;;;;21.25;12.98;;;640.50;2022.40;;;;;;5085714;28;20040;-58
2023/10/12 06:38:38;;;;;;;14.48;12.38;;;665.70;1971.20;;;;;;5086469;28;20101;-58
2023/10/12 06:46:17;;;;;;;13.13;11.73;;;614.80;1996.80;;;;;;5080690;28;20024;-58
2023/10/12 06:48:44;;;;;;;14.07;9.63;;;589.00;2099.20;;;;;;5091151;28;20031;-58
2023/10/12 06:51:16;;;;;;;11.65;9.52;;;563.30;2201.60;;;;;;5091799;28;20070;-57
2023/10/12 06:53:45;;;;;;;12.23;10.77;;;538.10;2252.80;;;;;;5079087;28;20080;-58
2023/10/12 06:59:08;;;;;;;11.48;8.48;;;512.40;2329.60;;;;;;5072608;28;20039;-58
2023/10/12 07:04:13;;;;;;;11.93;9.60;;;537.60;2380.80;;;;;;5077032;28;20033;-63
2023/10/12 07:06:59;;;;;;;14.80;11.02;;;589.70;2150.40;;;;;;5070226;28;20609;-64
2023/10/12 07:09:43;;;;;;;12.65;10.95;;;666.50;1920.00;;;;;;5078085;28;20068;-64
2023/10/12 07:12:15;;;;;;;11.48;9.07;;;716.80;1843.20;;;;;;5079420;28;20066;-64
2023/10/12 07:14:47;;;;;;;12.73;11.05;;;742.50;1740.80;;;;;;5064622;28;20483;-65
2023/10/12 07:28:32;;;;;;;9.60;8.60;;;870.60;1459.20;;;;;;5058987;22;20943;-70
2023/10/12 07:33:32;;;;;;;11.25;7.15;;;896.10;1356.80;;;;;;5081847;28;20018;-69
2023/10/12 07:36:17;;;;;;;9.73;8.43;;;896.10;1356.80;;;;;;5084163;28;20063;-67
2023/10/12 07:38:45;;;;;;;11.30;9.95;;;896.90;1305.60;;;;;;5081471;28;20020;-69
2023/10/12 07:41:11;;;;;;;12.27;9.95;;;922.00;1331.20;;;;;;5085911;28;20027;-65
2023/10/12 07:43:38;;;;;;;12.50;9.90;;;921.70;1305.60;;;;;;5099393;28;20012;-65
2023/10/12 07:46:14;;;;;;;11.50;10.40;;;922.30;1305.60;;;;;;5088744;28;20039;-69
2023/10/12 07:48:44;;;;;;;12.55;11.35;;;921.90;1331.20;;;;;;5100869;28;20024;-68
2023/10/12 07:51:30;;;;;;;12.27;9.95;;;921.80;1305.60;;;;;;5097062;28;20043;-68
2023/10/12 07:54:00;;;;;;;12.73;11.48;;;896.10;1356.80;;;;;;5097511;28;20040;-70
2023/10/12 07:56:33;;;;;;;12.52;11.23;;;896.40;1331.20;;;;;;5108429;28;20028;-67
2023/10/12 07:59:01;;;;;;;13.00;11.52;;;896.50;1331.20;;;;;;5101533;28;20039;-67
2023/10/12 08:04:00;;;;;;;13.20;11.18;;;921.90;1331.20;;;;;;5095758;28;20484;-67
2023/10/12 08:09:03;;;;;;;17.58;14.05;;;922.30;1305.60;;;;;;5088246;28;20381;-70
2023/10/12 08:11:31;;;;;;;26.65;15.35;;;896.80;1305.60;;;;;;5087470;28;20046;-67
2023/10/12 08:13:59;;;;;;;19.45;17.33;;;921.60;1331.20;;;;;;5090118;28;20427;-66
2023/10/12 08:16:28;;;;;;;20.05;17.85;;;922.00;1305.60;;;;;;5089410;28;20026;-70
2023/10/12 08:21:25;;;;;;;22.85;17.23;;;871.10;1356.80;;;;;;5094615;28;20035;-66
2023/10/12 08:23:57;;;;;;;19.25;17.23;;;896.80;1305.60;;;;;;5094375;28;20074;-68
2023/10/12 08:39:38;;;;;;;17.65;13.20;;;896.80;1305.60;;;;;;5107159;28;20014;-71
2023/10/12 08:44:59;;;;;;;23.00;15.00;;;922.50;1254.40;;;;;;5107581;28;20039;-67
2023/10/12 08:50:01;;;;;;;22.98;14.55;;;921.90;1305.60;;;;;;5110612;28;20035;-71
2023/10/12 08:52:29;;;;;;;21.55;14.93;;;896.80;1305.60;;;;;;5092744;28;20028;-69
2023/10/12 08:55:03;;;;;;;18.90;13.45;;;871.20;1356.80;;;;;;5095644;28;20054;-66
2023/10/12 08:57:55;;;;;;;24.77;13.15;;;870.90;1356.80;;;;;;5096903;28;20035;-68
2023/10/12 09:05:51;;;;;;;20.85;13.63;;;794.20;1510.40;;;;;;4906477;29;20040;-68
2023/10/12 09:13:36;;;;;;;20.35;11.90;;;716.90;1689.60;;;;;;4907881;29;20124;-66
2023/10/12 09:16:09;;;;;;;29.00;12.82;;;717.20;1664.00;;;;;;4908069;29;20062;-68
2023/10/12 09:18:57;;;;;;;19.40;10.63;;;717.00;1689.60;;;;;;4897788;29;20032;-65
2023/10/12 09:24:05;;;;;;;17.40;10.43;;;691.40;1740.80;;;;;;4909067;29;20065;-65
2023/10/12 09:26:37;;;;;;;11.80;9.55;;;691.30;1740.80;;;;;;4897651;29;20378;-66
2023/10/12 09:29:28;;;;;;;17.30;10.70;;;691.30;1740.80;;;;;;4909872;29;20103;-71
2023/10/12 09:32:15;;;;;;;12.85;10.30;;;666.50;1792.00;;;;;;4899525;29;20137;-67
2023/10/12 09:37:21;;;;;;;14.48;9.10;;;665.80;1792.00;;;;;;4947854;28;20041;-67
2023/10/12 09:39:48;;;;;;;14.02;8.75;;;665.70;1817.60;;;;;;4987350;28;20030;-67
2023/10/12 09:42:28;;;;;;;17.90;9.68;;;640.80;1817.60;;;;;;5009448;28;20037;-68
2023/10/12 09:45:04;;;;;;;17.05;8.75;;;665.70;1817.60;;;;;;5090636;28;20148;-70
2023/10/12 09:47:50;;;;;;;15.80;9.02;;;640.70;1817.60;;;;;;5097333;28;20032;-66
2023/10/12 09:50:19;;;;;;;16.08;9.48;;;665.70;1843.20;;;;;;5105888;28;20024;-64
2023/10/12 09:52:57;;;;;;;15.20;9.20;;;640.90;1843.20;;;;;;5089318;28;20038;-65
2023/10/12 09:55:32;;;;;;;16.00;10.00;;;665.70;1843.20;;;;;;5105464;28;20491;-66
2023/10/12 09:58:20;;;;;;;20.67;9.65;;;665.80;1843.20;;;;;;5106878;28;20381;-69
2023/10/12 10:03:37;;;;;;;13.48;8.23;;;665.60;1894.40;;;;;;5088494;28;20027;-65
2023/10/12 10:06:19;;;;;;;14.88;8.57;;;665.70;1868.80;;;;;;5097420;28;20099;-65
2023/10/12 10:09:02;;;;;;;13.63;8.07;;;665.90;1843.20;;;;;;5083594;28;20461;-66
2023/10/12 10:11:29;;;;;;;17.40;8.00;;;640.80;1792.00;;;;;;5084595;28;20039;-70
2023/10/12 10:13:55;;;;;;;14.27;8.55;;;640.90;1843.20;;;;;;5086936;28;20122;-66
2023/10/12 10:16:21;;;;;;;14.48;7.72;;;665.70;1868.80;;;;;;5109253;28;20370;-66
2023/10/12 10:19:13;;;;;;;17.98;7.10;;;665.70;1843.20;;;;;;5108176;28;20019;-67
2023/10/12 10:22:05;;;;;;;11.07;6.47;;;665.90;1843.20;;;;;;5109057;28;20020;-66
2023/10/12 10:24:44;;;;;;;10.57;7.18;;;665.70;1792.00;;;;;;5078448;28;20043;-65
2023/10/12 10:27:14;;;;;;;11.07;6.40;;;665.70;1843.20;;;;;;5108572;28;20024;-65
2023/10/12 10:29:53;;;;;;;13.35;7.40;;;665.90;1843.20;;;;;;5112183;28;20043;-67
2023/10/12 10:32:32;;;;;;;14.63;7.22;;;665.80;1843.20;;;;;;5096788;28;20091;-67
2023/10/12 10:34:59;;;;;;;14.13;5.95;;;666.00;1843.20;;;;;;5098325;28;20531;-68
2023/10/12 10:37:57;;;;;;;10.77;6.97;;;665.70;1792.00;;;;;;5099093;28;20059;-69
2023/10/12 10:40:45;;;;;;;9.95;6.38;;;665.90;1766.40;;;;;;5105698;28;20058;-67
2023/10/12 10:43:15;;;;;;;9.98;6.00;;;665.90;1817.60;;;;;;5106931;28;20043;-69
2023/10/12 10:45:42;;;;;;;12.57;6.60;;;665.90;1740.80;;;;;;5097403;28;20377;-66
2023/10/12 10:48:14;;;;;;;13.50;6.82;;;666.00;1740.80;;;;;;5106186;28;20042;-66
2023/10/12 10:50:49;;;;;;;18.20;5.68;;;665.90;1766.40;;;;;;5105850;28;20042;-65
2023/10/12 10:53:15;;;;;;;10.68;5.28;;;665.80;1715.20;;;;;;5092220;28;20063;-67
2023/10/12 10:55:42;;;;;;;16.40;6.28;;;665.70;1740.80;;;;;;5086776;28;20131;-65
2023/10/12 10:58:09;;;;;;;9.98;5.68;;;665.80;1766.40;;;;;;5085100;28;20027;-68
2023/10/12 11:00:37;;;;;;;8.98;5.35;;;665.90;1792.00;;;;;;5089104;28;20178;-65
2023/10/12 11:03:06;;;;;;;13.93;5.55;;;666.10;1740.80;;;;;;5087208;28;20430;-67
2023/10/12 11:05:37;;;;;;;12.35;4.70;;;666.00;1740.80;;;;;;5093266;28;20024;-65
2023/10/12 11:08:19;;;;;;;11.88;5.28;;;666.20;1715.20;;;;;;5072271;28;20667;-68
2023/10/12 11:13:32;;;;;;;10.38;5.88;;;666.40;1715.20;;;;;;5105581;28;20074;-69
2023/10/12 11:16:04;;;;;;;10.65;5.43;;;666.20;1664.00;;;;;;5108393;28;20469;-68
2023/10/12 11:18:31;;;;;;;11.13;5.90;;;666.30;1689.60;;;;;;5105576;28;20016;-71
2023/10/12 11:21:03;;;;;;;11.07;6.28;;;666.30;1715.20;;;;;;5106732;28;20032;-71
2023/10/12 11:23:29;;;;;;;11.73;5.72;;;666.30;1689.60;;;;;;5100766;28;20024;-70
2023/10/12 11:26:17;;;;;;;12.45;6.05;;;666.40;1664.00;;;;;;5107700;28;20084;-72
2023/10/12 11:28:43;;;;;;;8.75;5.35;;;666.30;1638.40;;;;;;5109749;28;20019;-70
2023/10/12 11:31:20;;;;;;;10.32;4.80;;;666.40;1664.00;;;;;;5108939;28;20148;-72
2023/10/12 11:33:49;;;;;;;14.13;6.15;;;666.50;1638.40;;;;;;5107530;28;20019;-70
2023/10/12 11:36:19;;;;;;;7.75;5.20;;;691.20;1612.80;;;;;;5101736;28;20062;-69
2023/10/12 11:38:49;;;;;;;12.18;5.93;;;691.20;1664.00;;;;;;5107711;28;20019;-73
2023/10/12 11:41:16;;;;;;;10.23;5.38;;;691.30;1612.80;;;;;;5094130;28;20032;-68
2023/10/12 11:43:52;;;;;;;10.50;5.32;;;691.30;1587.20;;;;;;5100553;28;20032;-67
2023/10/12 11:46:18;;;;;;;12.30;5.53;;;691.30;1612.80;;;;;;5098503;28;20068;-68
2023/10/12 11:48:44;;;;;;;10.85;4.90;;;691.30;1561.60;;;;;;5107386;28;20408;-69
2023/10/12 11:51:13;;;;;;;14.40;5.63;;;691.30;1561.60;;;;;;5109538;28;20038;-68
2023/10/12 11:53:40;;;;;;;12.27;5.97;;;691.30;1561.60;;;;;;5102188;28;20481;-69
2023/10/12 11:56:18;;;;;;;7.68;5.13;;;691.40;1561.60;;;;;;5107991;28;20441;-67
2023/10/12 11:59:22;;;;;;;11.07;5.10;;;691.50;1561.60;;;;;;5108420;28;20102;-67
2023/10/12 12:01:37;;;;;;;13.20;5.05;;;691.60;1561.60;;;;;;5090411;28;20123;-70
2023/10/12 12:04:04;;;;;;;22.95;8.02;;;691.60;1510.40;;;;;;5098031;28;20377;-67
2023/10/12 12:06:32;;;;;;;12.30;6.50;;;691.60;1561.60;;;;;;5105765;28;20395;-68
2023/10/12 12:08:59;;;;;;;11.50;6.13;;;691.60;1536.00;;;;;;5094651;28;20823;-71
2023/10/12 12:11:31;;;;;;;9.18;5.43;;;691.60;1536.00;;;;;;5082888;28;20035;-68
2023/10/12 12:13:57;;;;;;;11.40;5.07;;;691.70;1484.80;;;;;;5085798;28;20081;-68
2023/10/12 12:16:23;;;;;;;17.25;6.28;;;691.70;1459.20;;;;;;5100425;28;20669;-70
2023/10/12 12:18:53;;;;;;;12.15;6.43;;;691.60;1510.40;;;;;;5091131;28;20053;-69
2023/10/12 12:21:33;;;;;;;11.65;6.07;;;691.70;1510.40;;;;;;5090893;28;20054;-65
2023/10/12 12:26:45;;;;;;;13.65;6.47;;;691.70;1484.80;;;;;;5093413;28;20050;-65
2023/10/12 12:29:15;;;;;;;17.02;5.45;;;691.70;1510.40;;;;;;5097559;28;20127;-66
2023/10/12 12:31:41;;;;;;;12.55;5.65;;;691.70;1484.80;;;;;;5104905;28;20055;-69
2023/10/12 12:34:07;;;;;;;16.23;7.20;;;691.70;1510.40;;;;;;5070069;28;20102;-67
2023/10/12 12:36:34;;;;;;;12.65;6.63;;;691.80;1510.40;;;;;;5088617;28;20060;-70
2023/10/12 12:39:11;;;;;;;15.30;6.45;;;691.90;1510.40;;;;;;5088911;28;20024;-68
2023/10/12 12:41:37;;;;;;;16.70;6.22;;;691.80;1484.80;;;;;;5083282;28;20556;-71
2023/10/12 12:44:03;;;;;;;12.90;6.22;;;691.90;1510.40;;;;;;5089900;28;20089;-67
2023/10/12 12:46:32;;;;;;;14.85;6.53;;;691.90;1510.40;;;;;;5103085;28;20078;-67
2023/10/12 12:48:57;;;;;;;12.05;5.07;;;691.90;1510.40;;;;;;5107612;28;20027;-66
2023/10/12 12:51:23;;;;;;;10.95;6.80;;;691.90;1484.80;;;;;;5108296;28;20030;-67
2023/10/12 12:53:51;;;;;;;9.25;5.30;;;691.80;1510.40;;;;;;5104171;28;20037;-71
2023/10/12 12:56:19;;;;;;;14.10;5.28;;;691.90;1484.80;;;;;;5099143;28;20031;-69
2023/10/12 12:58:46;;;;;;;14.40;5.85;;;692.10;1484.80;;;;;;5108225;28;20074;-69
2023/10/12 13:01:23;;;;;;;10.60;5.10;;;691.90;1484.80;;;;;;5107649;28;20062;-71
2023/10/12 13:03:52;;;;;;;10.63;4.60;;;691.90;1484.80;;;;;;5104647;28;20501;-69
2023/10/12 13:06:19;;;;;;;9.20;5.45;;;691.90;1510.40;;;;;;5108379;28;20019;-71
2023/10/12 13:08:45;;;;;;;11.98;5.88;;;691.90;1510.40;;;;;;5107773;28;20016;-72
2023/10/12 13:11:11;;;;;;;11.70;5.85;;;691.90;1510.40;;;;;;5108086;28;20050;-72
2023/10/12 13:13:40;;;;;;;13.88;5.45;;;691.90;1510.40;;;;;;5107692;28;20018;-66
2023/10/12 13:16:12;;;;;;;11.10;5.10;;;691.90;1484.80;;;;;;5092449;28;20033;-69
2023/10/12 13:18:38;;;;;;;13.77;5.22;;;691.90;1484.80;;;;;;5075446;28;20028;-70
2023/10/12 13:21:07;;;;;;;12.27;5.05;;;691.90;1510.40;;;;;;5084812;28;20035;-67
2023/10/12 13:23:34;;;;;;;12.45;5.03;;;691.90;1510.40;;;;;;5087260;28;20028;-70
2023/10/12 13:26:07;;;;;;;13.98;4.93;;;691.80;1484.80;;;;;;5087450;28;20094;-70
2023/10/12 13:28:33;;;;;;;16.10;6.03;;;691.90;1484.80;;;;;;5087680;28;20111;-67
2023/10/12 13:30:59;;;;;;;9.07;5.07;;;691.90;1510.40;;;;;;5087387;28;20089;-68
2023/10/12 13:33:27;;;;;;;11.75;5.60;;;691.90;1484.80;;;;;;5087648;28;20408;-67
2023/10/12 13:35:56;;;;;;;12.63;5.00;;;691.90;1484.80;;;;;;5087591;28;20086;-71
2023/10/12 13:38:22;;;;;;;9.43;4.97;;;691.90;1484.80;;;;;;5087578;28;20049;-71
2023/10/12 13:40:50;;;;;;;13.80;7.90;;;691.90;1484.80;;;;;;5079741;28;20028;-66
2023/10/12 13:43:21;;;;;;;12.57;5.60;;;691.80;1510.40;;;;;;5073768;28;20081;-66
2023/10/12 13:45:52;;;;;;;10.77;6.00;;;691.80;1484.80;;;;;;5076310;28;20024;-69
2023/10/12 13:48:22;;;;;;;16.58;6.95;;;691.90;1510.40;;;;;;5079302;28;20043;-67
2023/10/12 13:51:00;;;;;;;12.75;6.88;;;691.80;1510.40;;;;;;5087790;28;20048;-69
2023/10/12 13:53:29;;;;;;;16.73;6.00;;;691.70;1510.40;;;;;;5086678;28;20063;-71
2023/10/12 13:55:56;;;;;;;15.25;5.55;;;691.70;1510.40;;;;;;5085772;28;20059;-68
2023/10/12 13:58:25;;;;;;;9.38;4.93;;;691.70;1484.80;;;;;;5089275;28;20088;-68
2023/10/12 14:00:53;;;;;;;13.77;4.97;;;691.70;1484.80;;;;;;5083184;28;20031;-70
2023/10/12 14:03:28;;;;;;;10.20;5.38;;;691.70;1510.40;;;;;;5089477;28;20062;-70
2023/10/12 14:05:59;;;;;;;12.13;5.93;;;691.70;1510.40;;;;;;5083615;28;20029;-67
2023/10/12 14:08:25;;;;;;;11.00;5.78;;;691.70;1510.40;;;;;;5087145;28;20047;-68
2023/10/12 14:10:51;;;;;;;11.57;6.38;;;691.70;1510.40;;;;;;5079521;28;20346;-70
2023/10/12 14:13:17;;;;;;;17.55;6.60;;;691.70;1510.40;;;;;;5086027;28;20043;-71
2023/10/12 14:15:43;;;;;;;11.93;5.30;;;691.60;1510.40;;;;;;5084385;28;20047;-67
2023/10/12 14:18:11;;;;;;;14.02;5.60;;;691.60;1536.00;;;;;;5089366;28;20028;-67
2023/10/12 14:20:42;;;;;;;10.85;5.85;;;691.60;1536.00;;;;;;5078097;28;20033;-71
2023/10/12 14:23:08;;;;;;;19.00;10.48;;;691.50;1536.00;;;;;;5068947;28;20036;-68
2023/10/12 14:25:35;;;;;;;19.80;9.73;;;691.50;1561.60;;;;;;5087092;28;20478;-70
2023/10/12 14:28:03;;;;;;;19.40;9.98;;;691.50;1561.60;;;;;;5089002;28;20031;-70
2023/10/12 14:30:29;;;;;;;23.00;11.15;;;691.40;1561.60;;;;;;5090578;28;20417;-67
2023/10/12 14:33:06;;;;;;;15.07;10.70;;;691.40;1587.20;;;;;;5090318;28;20032;-70
2023/10/12 14:35:40;;;;;;;23.42;13.88;;;691.30;1612.80;;;;;;5090538;28;20671;-68
2023/10/12 14:38:14;;;;;;;19.45;11.93;;;691.30;1612.80;;;;;;5090535;28;20039;-68
2023/10/12 14:40:43;;;;;;;16.58;9.90;;;691.30;1612.80;;;;;;5081098;28;20028;-70
2023/10/12 14:43:11;;;;;;;11.32;7.47;;;691.20;1638.40;;;;;;5071083;28;20036;-69
2023/10/12 14:46:10;;;;;;;14.70;6.80;;;691.20;1638.40;;;;;;5088194;28;20104;-70
2023/10/12 14:48:36;;;;;;;14.27;7.25;;;691.20;1638.40;;;;;;5080981;28;20061;-67